sensor_id;sensor_type;location;lat;lon;timestamp;P1;durP1;ratioP1;P2;durP2;ratioP2
20080;SDS011;10200;49.232;9.222;2022-11-21T00:00:27;0.87;;;0.87;;
20080;SDS011;10200;49.232;9.222;2022-11-21T00:02:53;3.83;;;0.93;;
20080;SDS011;10200;49.232;9.222;2022-11-21T00:05:21;3.20;;;0.77;;
20080;SDS011;10200;49.232;9.222;2022-11-21T00:07:46;2.67;;;1.00;;
20080;SDS011;10200;49.232;9.222;2022-11-21T00:10:13;1.13;;;1.00;;
20080;SDS011;10200;49.232;9.222;2022-11-21T00:12:39;3.30;;;1.10;;
20080;SDS011;10200;49.232;9.222;2022-11-21T00:15:05;3.80;;;1.17;;
20080;SDS011;10200;49.232;9.222;2022-11-21T00:17:30;3.60;;;0.83;;
20080;SDS011;10200;49.232;9.222;2022-11-21T00:19:56;1.00;;;0.87;;
20080;SDS011;10200;49.232;9.222;2022-11-21T00:22:21;2.57;;;1.00;;
20080;SDS011;10200;49.232;9.222;2022-11-21T00:24:47;3.00;;;0.80;;
20080;SDS011;10200;49.232;9.222;2022-11-21T00:27:12;2.67;;;0.90;;
20080;SDS011;10200;49.232;9.222;2022-11-21T00:29:38;2.57;;;0.87;;
20080;SDS011;10200;49.232;9.222;2022-11-21T00:32:03;2.00;;;1.07;;
20080;SDS011;10200;49.232;9.222;2022-11-21T00:34:29;4.20;;;1.10;;
20080;SDS011;10200;49.232;9.222;2022-11-21T00:36:55;3.63;;;0.97;;
20080;SDS011;10200;49.232;9.222;2022-11-21T00:39:20;2.57;;;0.70;;
20080;SDS011;10200;49.232;9.222;2022-11-21T00:41:46;2.10;;;1.00;;
20080;SDS011;10200;49.232;9.222;2022-11-21T00:44:11;2.80;;;1.23;;
20080;SDS011;10200;49.232;9.222;2022-11-21T00:46:37;2.50;;;1.03;;
20080;SDS011;10200;49.232;9.222;2022-11-21T00:49:02;1.27;;;0.83;;
20080;SDS011;10200;49.232;9.222;2022-11-21T00:51:28;1.17;;;0.80;;
20080;SDS011;10200;49.232;9.222;2022-11-21T00:53:53;1.47;;;0.97;;
20080;SDS011;10200;49.232;9.222;2022-11-21T00:56:19;1.23;;;0.87;;
20080;SDS011;10200;49.232;9.222;2022-11-21T00:58:44;1.97;;;0.70;;
20080;SDS011;10200;49.232;9.222;2022-11-21T01:01:11;5.13;;;1.10;;
20080;SDS011;10200;49.232;9.222;2022-11-21T01:03:38;1.13;;;0.70;;
20080;SDS011;10200;49.232;9.222;2022-11-21T01:06:05;0.53;;;0.53;;
20080;SDS011;10200;49.232;9.222;2022-11-21T01:08:36;3.63;;;0.97;;
20080;SDS011;10200;49.232;9.222;2022-11-21T01:11:03;2.10;;;0.90;;
20080;SDS011;10200;49.232;9.222;2022-11-21T01:13:31;2.03;;;1.40;;
20080;SDS011;10200;49.232;9.222;2022-11-21T01:18:33;1.50;;;0.60;;
20080;SDS011;10200;49.232;9.222;2022-11-21T01:21:03;0.70;;;0.63;;
20080;SDS011;10200;49.232;9.222;2022-11-21T01:23:38;4.07;;;0.87;;
20080;SDS011;10200;49.232;9.222;2022-11-21T01:26:04;4.23;;;1.00;;
20080;SDS011;10200;49.232;9.222;2022-11-21T01:28:31;1.17;;;0.70;;
20080;SDS011;10200;49.232;9.222;2022-11-21T01:31:10;4.67;;;1.43;;
20080;SDS011;10200;49.232;9.222;2022-11-21T01:33:41;4.13;;;1.20;;
20080;SDS011;10200;49.232;9.222;2022-11-21T01:38:32;4.17;;;1.03;;
20080;SDS011;10200;49.232;9.222;2022-11-21T01:40:58;2.00;;;0.70;;
20080;SDS011;10200;49.232;9.222;2022-11-21T01:43:24;1.27;;;0.77;;
20080;SDS011;10200;49.232;9.222;2022-11-21T01:45:57;7.80;;;1.30;;
20080;SDS011;10200;49.232;9.222;2022-11-21T01:48:26;0.80;;;0.60;;
20080;SDS011;10200;49.232;9.222;2022-11-21T01:51:14;5.50;;;1.20;;
20080;SDS011;10200;49.232;9.222;2022-11-21T01:53:41;3.37;;;0.90;;
20080;SDS011;10200;49.232;9.222;2022-11-21T01:56:12;4.37;;;1.00;;
20080;SDS011;10200;49.232;9.222;2022-11-21T01:58:39;1.40;;;0.90;;
20080;SDS011;10200;49.232;9.222;2022-11-21T02:01:06;1.50;;;0.80;;
20080;SDS011;10200;49.232;9.222;2022-11-21T02:03:32;3.43;;;1.00;;
20080;SDS011;10200;49.232;9.222;2022-11-21T02:06:00;9.83;;;1.87;;
20080;SDS011;10200;49.232;9.222;2022-11-21T02:08:26;4.27;;;1.27;;
20080;SDS011;10200;49.232;9.222;2022-11-21T02:10:58;6.33;;;1.10;;
20080;SDS011;10200;49.232;9.222;2022-11-21T02:13:32;2.63;;;1.00;;
20080;SDS011;10200;49.232;9.222;2022-11-21T02:15:57;2.90;;;0.93;;
20080;SDS011;10200;49.232;9.222;2022-11-21T02:18:23;1.37;;;0.67;;
20080;SDS011;10200;49.232;9.222;2022-11-21T02:20:50;1.80;;;0.80;;
20080;SDS011;10200;49.232;9.222;2022-11-21T02:23:25;6.17;;;0.67;;
20080;SDS011;10200;49.232;9.222;2022-11-21T02:25:57;2.93;;;1.03;;
20080;SDS011;10200;49.232;9.222;2022-11-21T02:28:24;0.83;;;0.50;;
20080;SDS011;10200;49.232;9.222;2022-11-21T02:30:50;2.40;;;0.80;;
20080;SDS011;10200;49.232;9.222;2022-11-21T02:33:16;1.27;;;0.50;;
20080;SDS011;10200;49.232;9.222;2022-11-21T02:35:42;3.60;;;0.60;;
20080;SDS011;10200;49.232;9.222;2022-11-21T02:38:12;0.93;;;0.67;;
20080;SDS011;10200;49.232;9.222;2022-11-21T02:40:51;0.57;;;0.43;;
20080;SDS011;10200;49.232;9.222;2022-11-21T02:46:16;1.40;;;0.70;;
20080;SDS011;10200;49.232;9.222;2022-11-21T02:48:42;2.60;;;0.50;;
20080;SDS011;10200;49.232;9.222;2022-11-21T02:51:08;1.00;;;0.60;;
20080;SDS011;10200;49.232;9.222;2022-11-21T02:53:33;1.30;;;0.60;;
20080;SDS011;10200;49.232;9.222;2022-11-21T02:55:59;0.60;;;0.50;;
20080;SDS011;10200;49.232;9.222;2022-11-21T02:58:24;1.30;;;0.70;;
20080;SDS011;10200;49.232;9.222;2022-11-21T03:00:50;2.40;;;0.67;;
20080;SDS011;10200;49.232;9.222;2022-11-21T03:03:15;1.57;;;0.70;;
20080;SDS011;10200;49.232;9.222;2022-11-21T03:05:41;3.77;;;0.90;;
20080;SDS011;10200;49.232;9.222;2022-11-21T03:08:07;2.17;;;0.50;;
20080;SDS011;10200;49.232;9.222;2022-11-21T03:10:32;4.73;;;0.70;;
20080;SDS011;10200;49.232;9.222;2022-11-21T03:12:58;3.23;;;0.90;;
20080;SDS011;10200;49.232;9.222;2022-11-21T03:15:28;2.43;;;0.80;;
20080;SDS011;10200;49.232;9.222;2022-11-21T03:17:56;1.60;;;0.93;;
20080;SDS011;10200;49.232;9.222;2022-11-21T03:20:21;1.20;;;0.70;;
20080;SDS011;10200;49.232;9.222;2022-11-21T03:22:47;2.87;;;0.90;;
20080;SDS011;10200;49.232;9.222;2022-11-21T03:25:14;3.23;;;1.00;;
20080;SDS011;10200;49.232;9.222;2022-11-21T03:27:40;2.20;;;1.03;;
20080;SDS011;10200;49.232;9.222;2022-11-21T03:30:05;1.87;;;1.00;;
20080;SDS011;10200;49.232;9.222;2022-11-21T03:32:31;1.73;;;0.80;;
20080;SDS011;10200;49.232;9.222;2022-11-21T03:34:57;1.87;;;0.90;;
20080;SDS011;10200;49.232;9.222;2022-11-21T03:37:23;1.03;;;0.70;;
20080;SDS011;10200;49.232;9.222;2022-11-21T03:39:48;2.57;;;1.17;;
20080;SDS011;10200;49.232;9.222;2022-11-21T03:42:14;1.60;;;0.63;;
20080;SDS011;10200;49.232;9.222;2022-11-21T03:44:39;1.67;;;0.60;;
20080;SDS011;10200;49.232;9.222;2022-11-21T03:47:05;2.90;;;0.80;;
20080;SDS011;10200;49.232;9.222;2022-11-21T03:49:31;0.63;;;0.50;;
20080;SDS011;10200;49.232;9.222;2022-11-21T03:51:56;2.60;;;0.80;;
20080;SDS011;10200;49.232;9.222;2022-11-21T03:54:22;2.53;;;1.00;;
20080;SDS011;10200;49.232;9.222;2022-11-21T03:56:47;3.27;;;0.60;;
20080;SDS011;10200;49.232;9.222;2022-11-21T03:59:13;0.60;;;0.60;;
20080;SDS011;10200;49.232;9.222;2022-11-21T04:01:38;2.23;;;0.83;;
20080;SDS011;10200;49.232;9.222;2022-11-21T04:04:04;2.37;;;0.80;;
20080;SDS011;10200;49.232;9.222;2022-11-21T04:06:29;0.63;;;0.60;;
20080;SDS011;10200;49.232;9.222;2022-11-21T04:08:55;0.93;;;0.73;;
20080;SDS011;10200;49.232;9.222;2022-11-21T04:11:21;1.13;;;0.60;;
20080;SDS011;10200;49.232;9.222;2022-11-21T04:13:48;3.80;;;1.20;;
20080;SDS011;10200;49.232;9.222;2022-11-21T04:16:14;2.00;;;0.77;;
20080;SDS011;10200;49.232;9.222;2022-11-21T04:18:40;3.50;;;0.70;;
20080;SDS011;10200;49.232;9.222;2022-11-21T04:21:06;2.40;;;0.80;;
20080;SDS011;10200;49.232;9.222;2022-11-21T04:23:32;4.60;;;0.60;;
20080;SDS011;10200;49.232;9.222;2022-11-21T04:25:58;2.33;;;0.63;;
20080;SDS011;10200;49.232;9.222;2022-11-21T04:28:24;2.70;;;0.50;;
20080;SDS011;10200;49.232;9.222;2022-11-21T04:30:50;2.23;;;0.67;;
20080;SDS011;10200;49.232;9.222;2022-11-21T04:33:16;1.00;;;0.67;;
20080;SDS011;10200;49.232;9.222;2022-11-21T04:35:42;1.53;;;0.83;;
20080;SDS011;10200;49.232;9.222;2022-11-21T04:38:09;3.57;;;0.70;;
20080;SDS011;10200;49.232;9.222;2022-11-21T04:40:35;1.90;;;0.63;;
20080;SDS011;10200;49.232;9.222;2022-11-21T04:43:01;2.03;;;0.70;;
20080;SDS011;10200;49.232;9.222;2022-11-21T04:45:27;0.90;;;0.67;;
20080;SDS011;10200;49.232;9.222;2022-11-21T04:47:53;0.60;;;0.47;;
20080;SDS011;10200;49.232;9.222;2022-11-21T04:50:18;1.27;;;0.70;;
20080;SDS011;10200;49.232;9.222;2022-11-21T04:52:48;4.07;;;1.37;;
20080;SDS011;10200;49.232;9.222;2022-11-21T04:55:15;2.13;;;0.60;;
20080;SDS011;10200;49.232;9.222;2022-11-21T04:57:41;5.00;;;1.03;;
20080;SDS011;10200;49.232;9.222;2022-11-21T05:00:06;1.13;;;0.87;;
20080;SDS011;10200;49.232;9.222;2022-11-21T05:02:32;0.70;;;0.60;;
20080;SDS011;10200;49.232;9.222;2022-11-21T05:04:58;2.10;;;0.70;;
20080;SDS011;10200;49.232;9.222;2022-11-21T05:07:24;1.07;;;0.77;;
20080;SDS011;10200;49.232;9.222;2022-11-21T05:09:49;3.93;;;1.13;;
20080;SDS011;10200;49.232;9.222;2022-11-21T05:12:15;0.80;;;0.80;;
20080;SDS011;10200;49.232;9.222;2022-11-21T05:14:59;1.40;;;0.83;;
20080;SDS011;10200;49.232;9.222;2022-11-21T05:17:26;5.00;;;1.50;;
20080;SDS011;10200;49.232;9.222;2022-11-21T05:19:54;5.63;;;1.70;;
20080;SDS011;10200;49.232;9.222;2022-11-21T05:22:20;1.97;;;1.13;;
20080;SDS011;10200;49.232;9.222;2022-11-21T05:24:45;2.07;;;1.13;;
20080;SDS011;10200;49.232;9.222;2022-11-21T05:27:11;1.97;;;1.10;;
20080;SDS011;10200;49.232;9.222;2022-11-21T05:29:36;0.70;;;0.70;;
20080;SDS011;10200;49.232;9.222;2022-11-21T05:32:02;3.13;;;1.17;;
20080;SDS011;10200;49.232;9.222;2022-11-21T05:34:28;1.53;;;0.70;;
20080;SDS011;10200;49.232;9.222;2022-11-21T05:36:53;2.80;;;0.80;;
20080;SDS011;10200;49.232;9.222;2022-11-21T05:39:21;1.47;;;0.80;;
20080;SDS011;10200;49.232;9.222;2022-11-21T05:41:47;1.00;;;0.90;;
20080;SDS011;10200;49.232;9.222;2022-11-21T05:44:12;2.67;;;0.90;;
20080;SDS011;10200;49.232;9.222;2022-11-21T05:46:38;3.90;;;0.60;;
20080;SDS011;10200;49.232;9.222;2022-11-21T05:49:03;3.03;;;0.80;;
20080;SDS011;10200;49.232;9.222;2022-11-21T05:51:29;1.13;;;0.80;;
20080;SDS011;10200;49.232;9.222;2022-11-21T05:53:55;1.50;;;0.80;;
20080;SDS011;10200;49.232;9.222;2022-11-21T05:56:20;2.20;;;0.90;;
20080;SDS011;10200;49.232;9.222;2022-11-21T05:58:46;2.07;;;1.20;;
20080;SDS011;10200;49.232;9.222;2022-11-21T06:01:12;3.97;;;1.43;;
20080;SDS011;10200;49.232;9.222;2022-11-21T06:03:39;5.00;;;3.07;;
20080;SDS011;10200;49.232;9.222;2022-11-21T06:08:39;6.03;;;2.93;;
20080;SDS011;10200;49.232;9.222;2022-11-21T06:11:07;3.80;;;1.80;;
20080;SDS011;10200;49.232;9.222;2022-11-21T06:13:34;2.13;;;1.40;;
20080;SDS011;10200;49.232;9.222;2022-11-21T06:18:27;2.43;;;0.90;;
20080;SDS011;10200;49.232;9.222;2022-11-21T06:23:32;4.30;;;1.60;;
20080;SDS011;10200;49.232;9.222;2022-11-21T06:25:58;1.83;;;0.97;;
20080;SDS011;10200;49.232;9.222;2022-11-21T06:28:26;2.80;;;1.40;;
20080;SDS011;10200;49.232;9.222;2022-11-21T06:30:55;2.10;;;1.20;;
20080;SDS011;10200;49.232;9.222;2022-11-21T06:33:21;2.93;;;1.43;;
20080;SDS011;10200;49.232;9.222;2022-11-21T06:35:47;1.67;;;1.43;;
20080;SDS011;10200;49.232;9.222;2022-11-21T06:38:12;9.43;;;1.80;;
20080;SDS011;10200;49.232;9.222;2022-11-21T06:40:38;6.30;;;1.77;;
20080;SDS011;10200;49.232;9.222;2022-11-21T06:43:04;5.63;;;2.30;;
20080;SDS011;10200;49.232;9.222;2022-11-21T06:45:30;1.70;;;1.10;;
20080;SDS011;10200;49.232;9.222;2022-11-21T06:47:55;7.23;;;2.53;;
20080;SDS011;10200;49.232;9.222;2022-11-21T06:50:21;7.73;;;3.87;;
20080;SDS011;10200;49.232;9.222;2022-11-21T06:52:47;4.33;;;1.90;;
20080;SDS011;10200;49.232;9.222;2022-11-21T06:55:13;2.83;;;1.30;;
20080;SDS011;10200;49.232;9.222;2022-11-21T06:57:39;2.70;;;1.87;;
20080;SDS011;10200;49.232;9.222;2022-11-21T07:00:05;2.37;;;1.30;;
20080;SDS011;10200;49.232;9.222;2022-11-21T07:02:31;4.70;;;1.60;;
20080;SDS011;10200;49.232;9.222;2022-11-21T07:04:56;4.43;;;1.73;;
20080;SDS011;10200;49.232;9.222;2022-11-21T07:07:22;1.53;;;1.40;;
20080;SDS011;10200;49.232;9.222;2022-11-21T07:09:47;6.83;;;2.90;;
20080;SDS011;10200;49.232;9.222;2022-11-21T07:12:13;9.87;;;4.23;;
20080;SDS011;10200;49.232;9.222;2022-11-21T07:14:58;6.57;;;2.90;;
20080;SDS011;10200;49.232;9.222;2022-11-21T07:17:23;6.07;;;2.80;;
20080;SDS011;10200;49.232;9.222;2022-11-21T07:19:49;8.23;;;1.93;;
20080;SDS011;10200;49.232;9.222;2022-11-21T07:22:14;5.73;;;1.70;;
20080;SDS011;10200;49.232;9.222;2022-11-21T07:24:40;7.23;;;2.43;;
20080;SDS011;10200;49.232;9.222;2022-11-21T07:27:05;6.63;;;2.60;;
20080;SDS011;10200;49.232;9.222;2022-11-21T07:29:31;7.40;;;1.70;;
20080;SDS011;10200;49.232;9.222;2022-11-21T07:31:56;6.47;;;1.70;;
20080;SDS011;10200;49.232;9.222;2022-11-21T07:34:22;5.50;;;1.47;;
20080;SDS011;10200;49.232;9.222;2022-11-21T07:36:47;11.10;;;2.03;;
20080;SDS011;10200;49.232;9.222;2022-11-21T07:39:13;3.23;;;1.73;;
20080;SDS011;10200;49.232;9.222;2022-11-21T07:41:39;3.17;;;1.60;;
20080;SDS011;10200;49.232;9.222;2022-11-21T07:44:04;5.37;;;1.83;;
20080;SDS011;10200;49.232;9.222;2022-11-21T07:46:30;4.73;;;1.50;;
20080;SDS011;10200;49.232;9.222;2022-11-21T07:48:55;4.00;;;1.53;;
20080;SDS011;10200;49.232;9.222;2022-11-21T07:51:21;2.50;;;1.50;;
20080;SDS011;10200;49.232;9.222;2022-11-21T07:53:46;3.20;;;1.60;;
20080;SDS011;10200;49.232;9.222;2022-11-21T07:56:12;7.10;;;2.50;;
20080;SDS011;10200;49.232;9.222;2022-11-21T07:58:38;10.03;;;2.90;;
20080;SDS011;10200;49.232;9.222;2022-11-21T08:01:04;11.77;;;4.20;;
20080;SDS011;10200;49.232;9.222;2022-11-21T08:03:31;10.80;;;5.00;;
20080;SDS011;10200;49.232;9.222;2022-11-21T08:05:59;6.17;;;2.23;;
20080;SDS011;10200;49.232;9.222;2022-11-21T08:08:27;3.40;;;1.57;;
20080;SDS011;10200;49.232;9.222;2022-11-21T08:10:52;6.57;;;2.10;;
20080;SDS011;10200;49.232;9.222;2022-11-21T08:13:18;4.83;;;2.03;;
20080;SDS011;10200;49.232;9.222;2022-11-21T08:15:44;5.97;;;1.80;;
20080;SDS011;10200;49.232;9.222;2022-11-21T08:18:13;10.83;;;2.67;;
20080;SDS011;10200;49.232;9.222;2022-11-21T08:20:43;9.40;;;2.43;;
20080;SDS011;10200;49.232;9.222;2022-11-21T08:23:08;4.40;;;2.03;;
20080;SDS011;10200;49.232;9.222;2022-11-21T08:25:38;5.60;;;2.20;;
20080;SDS011;10200;49.232;9.222;2022-11-21T08:28:04;5.90;;;2.10;;
20080;SDS011;10200;49.232;9.222;2022-11-21T08:30:32;7.20;;;2.03;;
20080;SDS011;10200;49.232;9.222;2022-11-21T08:32:58;4.77;;;2.40;;
20080;SDS011;10200;49.232;9.222;2022-11-21T08:35:27;6.63;;;2.00;;
20080;SDS011;10200;49.232;9.222;2022-11-21T08:37:57;11.40;;;2.33;;
20080;SDS011;10200;49.232;9.222;2022-11-21T08:40:24;7.30;;;1.90;;
20080;SDS011;10200;49.232;9.222;2022-11-21T08:43:01;5.77;;;1.20;;
20080;SDS011;10200;49.232;9.222;2022-11-21T08:45:28;3.80;;;1.27;;
20080;SDS011;10200;49.232;9.222;2022-11-21T08:47:55;7.13;;;1.70;;
20080;SDS011;10200;49.232;9.222;2022-11-21T08:50:22;4.47;;;1.47;;
20080;SDS011;10200;49.232;9.222;2022-11-21T08:52:48;3.90;;;1.77;;
20080;SDS011;10200;49.232;9.222;2022-11-21T08:55:14;6.50;;;1.43;;
20080;SDS011;10200;49.232;9.222;2022-11-21T08:57:40;3.40;;;1.37;;
20080;SDS011;10200;49.232;9.222;2022-11-21T09:00:07;2.87;;;1.30;;
20080;SDS011;10200;49.232;9.222;2022-11-21T09:02:34;5.03;;;1.27;;
20080;SDS011;10200;49.232;9.222;2022-11-21T09:05:00;8.00;;;2.23;;
20080;SDS011;10200;49.232;9.222;2022-11-21T09:07:25;5.13;;;1.20;;
20080;SDS011;10200;49.232;9.222;2022-11-21T09:09:51;3.53;;;1.30;;
20080;SDS011;10200;49.232;9.222;2022-11-21T09:12:17;3.87;;;1.50;;
20080;SDS011;10200;49.232;9.222;2022-11-21T09:14:42;5.07;;;1.50;;
20080;SDS011;10200;49.232;9.222;2022-11-21T09:17:26;1.77;;;1.10;;
20080;SDS011;10200;49.232;9.222;2022-11-21T09:20:10;4.60;;;1.27;;
20080;SDS011;10200;49.232;9.222;2022-11-21T09:22:36;3.53;;;1.50;;
20080;SDS011;10200;49.232;9.222;2022-11-21T09:25:02;2.43;;;1.23;;
20080;SDS011;10200;49.232;9.222;2022-11-21T09:27:28;3.23;;;0.90;;
20080;SDS011;10200;49.232;9.222;2022-11-21T09:29:54;3.87;;;1.30;;
20080;SDS011;10200;49.232;9.222;2022-11-21T09:32:20;4.07;;;1.40;;
20080;SDS011;10200;49.232;9.222;2022-11-21T09:34:46;5.90;;;1.40;;
20080;SDS011;10200;49.232;9.222;2022-11-21T09:37:11;4.50;;;1.80;;
20080;SDS011;10200;49.232;9.222;2022-11-21T09:39:37;5.83;;;1.90;;
20080;SDS011;10200;49.232;9.222;2022-11-21T09:47:30;5.13;;;1.70;;
20080;SDS011;10200;49.232;9.222;2022-11-21T09:53:47;3.90;;;1.13;;
20080;SDS011;10200;49.232;9.222;2022-11-21T09:56:05;2.47;;;1.17;;
20080;SDS011;10200;49.232;9.222;2022-11-21T09:58:41;3.40;;;1.30;;
20080;SDS011;10200;49.232;9.222;2022-11-21T10:01:12;2.70;;;1.10;;
20080;SDS011;10200;49.232;9.222;2022-11-21T10:03:40;4.43;;;1.17;;
20080;SDS011;10200;49.232;9.222;2022-11-21T10:06:18;3.00;;;0.90;;
20080;SDS011;10200;49.232;9.222;2022-11-21T10:14:49;4.93;;;0.93;;
20080;SDS011;10200;49.232;9.222;2022-11-21T10:17:47;3.10;;;1.20;;
20080;SDS011;10200;49.232;9.222;2022-11-21T10:23:59;4.83;;;1.20;;
20080;SDS011;10200;49.232;9.222;2022-11-21T10:31:46;3.20;;;1.03;;
20080;SDS011;10200;49.232;9.222;2022-11-21T10:34:18;6.97;;;1.20;;
20080;SDS011;10200;49.232;9.222;2022-11-21T10:36:48;5.50;;;1.23;;
20080;SDS011;10200;49.232;9.222;2022-11-21T10:42:31;5.27;;;0.77;;
20080;SDS011;10200;49.232;9.222;2022-11-21T10:45:04;3.63;;;1.03;;
20080;SDS011;10200;49.232;9.222;2022-11-21T10:47:41;5.67;;;1.63;;
20080;SDS011;10200;49.232;9.222;2022-11-21T10:52:35;6.27;;;1.20;;
20080;SDS011;10200;49.232;9.222;2022-11-21T10:55:16;2.93;;;0.90;;
20080;SDS011;10200;49.232;9.222;2022-11-21T10:57:49;4.33;;;1.20;;
20080;SDS011;10200;49.232;9.222;2022-11-21T11:08:08;5.97;;;1.10;;
20080;SDS011;10200;49.232;9.222;2022-11-21T11:10:42;2.67;;;0.97;;
20080;SDS011;10200;49.232;9.222;2022-11-21T11:13:16;8.90;;;1.93;;
20080;SDS011;10200;49.232;9.222;2022-11-21T11:18:44;3.23;;;1.63;;
20080;SDS011;10200;49.232;9.222;2022-11-21T11:21:28;3.30;;;1.53;;
20080;SDS011;10200;49.232;9.222;2022-11-21T11:26:33;7.23;;;1.70;;
20080;SDS011;10200;49.232;9.222;2022-11-21T11:31:58;3.73;;;1.43;;
20080;SDS011;10200;49.232;9.222;2022-11-21T11:34:40;5.03;;;1.30;;
20080;SDS011;10200;49.232;9.222;2022-11-21T11:39:54;3.33;;;1.30;;
20080;SDS011;10200;49.232;9.222;2022-11-21T11:42:33;4.07;;;1.03;;
20080;SDS011;10200;49.232;9.222;2022-11-21T11:48:50;6.80;;;1.20;;
20080;SDS011;10200;49.232;9.222;2022-11-21T11:51:25;4.73;;;1.23;;
20080;SDS011;10200;49.232;9.222;2022-11-21T11:53:57;4.83;;;0.80;;
20080;SDS011;10200;49.232;9.222;2022-11-21T11:56:28;4.13;;;0.97;;
20080;SDS011;10200;49.232;9.222;2022-11-21T11:59:10;3.87;;;1.00;;
20080;SDS011;10200;49.232;9.222;2022-11-21T12:01:52;5.50;;;1.13;;
20080;SDS011;10200;49.232;9.222;2022-11-21T12:04:24;6.17;;;1.40;;
20080;SDS011;10200;49.232;9.222;2022-11-21T12:06:54;3.17;;;1.00;;
20080;SDS011;10200;49.232;9.222;2022-11-21T12:12:02;2.00;;;1.10;;
20080;SDS011;10200;49.232;9.222;2022-11-21T12:23:32;3.43;;;1.13;;
20080;SDS011;10200;49.232;9.222;2022-11-21T12:39:49;8.10;;;1.30;;
20080;SDS011;10200;49.232;9.222;2022-11-21T12:57:25;3.90;;;1.10;;
20080;SDS011;10200;49.232;9.222;2022-11-21T13:00:22;6.10;;;1.70;;
20080;SDS011;10200;49.232;9.222;2022-11-21T13:06:12;3.50;;;1.13;;
20080;SDS011;10200;49.232;9.222;2022-11-21T13:08:46;8.90;;;1.57;;
20080;SDS011;10200;49.232;9.222;2022-11-21T13:27:37;0.83;;;0.70;;
20080;SDS011;10200;49.232;9.222;2022-11-21T13:59:28;6.03;;;1.90;;
20080;SDS011;10200;49.232;9.222;2022-11-21T14:07:28;5.30;;;1.47;;
20080;SDS011;10200;49.232;9.222;2022-11-21T14:09:57;10.33;;;2.27;;
20080;SDS011;10200;49.232;9.222;2022-11-21T14:12:26;6.87;;;2.00;;
20080;SDS011;10200;49.232;9.222;2022-11-21T14:20:21;5.57;;;2.23;;
20080;SDS011;10200;49.232;9.222;2022-11-21T14:22:58;8.47;;;2.10;;
20080;SDS011;10200;49.232;9.222;2022-11-21T14:28:31;4.97;;;1.60;;
20080;SDS011;10200;49.232;9.222;2022-11-21T14:31:05;5.10;;;1.80;;
20080;SDS011;10200;49.232;9.222;2022-11-21T14:33:32;6.17;;;2.10;;
20080;SDS011;10200;49.232;9.222;2022-11-21T14:44:34;3.30;;;1.90;;
20080;SDS011;10200;49.232;9.222;2022-11-21T14:46:38;2.97;;;1.10;;
20080;SDS011;10200;49.232;9.222;2022-11-21T14:54:12;3.73;;;1.27;;
20080;SDS011;10200;49.232;9.222;2022-11-21T14:56:41;5.33;;;1.30;;
20080;SDS011;10200;49.232;9.222;2022-11-21T14:59:29;8.20;;;2.20;;
20080;SDS011;10200;49.232;9.222;2022-11-21T15:02:11;3.10;;;1.17;;
20080;SDS011;10200;49.232;9.222;2022-11-21T15:04:42;5.27;;;1.30;;
20080;SDS011;10200;49.232;9.222;2022-11-21T15:09:44;18.63;;;3.40;;
20080;SDS011;10200;49.232;9.222;2022-11-21T15:12:10;12.27;;;1.73;;
20080;SDS011;10200;49.232;9.222;2022-11-21T15:14:49;12.63;;;2.20;;
20080;SDS011;10200;49.232;9.222;2022-11-21T15:17:28;3.97;;;1.90;;
20080;SDS011;10200;49.232;9.222;2022-11-21T15:20:01;7.47;;;1.90;;
20080;SDS011;10200;49.232;9.222;2022-11-21T15:22:37;11.10;;;3.03;;
20080;SDS011;10200;49.232;9.222;2022-11-21T15:25:47;8.57;;;3.13;;
20080;SDS011;10200;49.232;9.222;2022-11-21T15:30:27;4.20;;;1.20;;
20080;SDS011;10200;49.232;9.222;2022-11-21T15:40:56;14.27;;;1.90;;
20080;SDS011;10200;49.232;9.222;2022-11-21T15:43:32;14.03;;;3.23;;
20080;SDS011;10200;49.232;9.222;2022-11-21T15:48:45;3.47;;;1.40;;
20080;SDS011;10200;49.232;9.222;2022-11-21T15:51:12;3.70;;;1.40;;
20080;SDS011;10200;49.232;9.222;2022-11-21T15:53:38;3.60;;;1.40;;
20080;SDS011;10200;49.232;9.222;2022-11-21T15:56:04;6.73;;;1.70;;
20080;SDS011;10200;49.232;9.222;2022-11-21T15:58:30;3.50;;;1.17;;
20080;SDS011;10200;49.232;9.222;2022-11-21T16:00:56;3.47;;;1.63;;
20080;SDS011;10200;49.232;9.222;2022-11-21T16:03:22;3.03;;;1.63;;
20080;SDS011;10200;49.232;9.222;2022-11-21T16:05:47;3.80;;;1.70;;
20080;SDS011;10200;49.232;9.222;2022-11-21T16:08:13;5.10;;;1.40;;
20080;SDS011;10200;49.232;9.222;2022-11-21T16:10:41;4.67;;;1.40;;
20080;SDS011;10200;49.232;9.222;2022-11-21T16:13:07;4.37;;;1.73;;
20080;SDS011;10200;49.232;9.222;2022-11-21T16:15:35;3.87;;;2.03;;
20080;SDS011;10200;49.232;9.222;2022-11-21T16:18:00;4.70;;;2.30;;
20080;SDS011;10200;49.232;9.222;2022-11-21T16:20:26;11.97;;;5.13;;
20080;SDS011;10200;49.232;9.222;2022-11-21T16:22:52;5.87;;;3.63;;
20080;SDS011;10200;49.232;9.222;2022-11-21T16:25:18;5.70;;;2.33;;
20080;SDS011;10200;49.232;9.222;2022-11-21T16:27:44;4.83;;;1.97;;
20080;SDS011;10200;49.232;9.222;2022-11-21T16:30:10;7.50;;;1.80;;
20080;SDS011;10200;49.232;9.222;2022-11-21T16:32:36;3.40;;;1.53;;
20080;SDS011;10200;49.232;9.222;2022-11-21T16:35:02;3.30;;;1.30;;
20080;SDS011;10200;49.232;9.222;2022-11-21T16:37:29;5.77;;;1.77;;
20080;SDS011;10200;49.232;9.222;2022-11-21T16:39:55;3.97;;;2.17;;
20080;SDS011;10200;49.232;9.222;2022-11-21T16:42:21;4.30;;;1.63;;
20080;SDS011;10200;49.232;9.222;2022-11-21T16:44:46;3.17;;;1.70;;
20080;SDS011;10200;49.232;9.222;2022-11-21T16:47:12;3.13;;;1.87;;
20080;SDS011;10200;49.232;9.222;2022-11-21T16:49:38;4.30;;;1.80;;
20080;SDS011;10200;49.232;9.222;2022-11-21T16:52:08;7.00;;;2.00;;
20080;SDS011;10200;49.232;9.222;2022-11-21T16:54:34;7.07;;;2.53;;
20080;SDS011;10200;49.232;9.222;2022-11-21T16:57:00;7.93;;;2.90;;
20080;SDS011;10200;49.232;9.222;2022-11-21T16:59:25;3.70;;;1.77;;
20080;SDS011;10200;49.232;9.222;2022-11-21T17:01:51;2.53;;;1.47;;
20080;SDS011;10200;49.232;9.222;2022-11-21T17:04:17;6.33;;;2.27;;
20080;SDS011;10200;49.232;9.222;2022-11-21T17:06:42;3.80;;;1.53;;
20080;SDS011;10200;49.232;9.222;2022-11-21T17:09:09;6.73;;;2.30;;
20080;SDS011;10200;49.232;9.222;2022-11-21T17:11:35;2.30;;;1.83;;
20080;SDS011;10200;49.232;9.222;2022-11-21T17:14:01;4.40;;;2.27;;
20080;SDS011;10200;49.232;9.222;2022-11-21T17:16:29;7.33;;;2.83;;
20080;SDS011;10200;49.232;9.222;2022-11-21T17:18:56;6.13;;;2.77;;
20080;SDS011;10200;49.232;9.222;2022-11-21T17:21:25;2.93;;;2.43;;
20080;SDS011;10200;49.232;9.222;2022-11-21T17:23:51;3.60;;;2.50;;
20080;SDS011;10200;49.232;9.222;2022-11-21T17:26:19;5.73;;;2.77;;
20080;SDS011;10200;49.232;9.222;2022-11-21T17:28:53;2.97;;;2.07;;
20080;SDS011;10200;49.232;9.222;2022-11-21T17:31:24;6.17;;;2.60;;
20080;SDS011;10200;49.232;9.222;2022-11-21T17:33:50;6.40;;;2.70;;
20080;SDS011;10200;49.232;9.222;2022-11-21T17:36:17;5.97;;;2.60;;
20080;SDS011;10200;49.232;9.222;2022-11-21T17:38:44;11.27;;;2.30;;
20080;SDS011;10200;49.232;9.222;2022-11-21T17:41:11;4.07;;;2.90;;
20080;SDS011;10200;49.232;9.222;2022-11-21T17:43:38;3.87;;;2.43;;
20080;SDS011;10200;49.232;9.222;2022-11-21T17:46:05;2.43;;;2.10;;
20080;SDS011;10200;49.232;9.222;2022-11-21T17:48:34;8.73;;;3.57;;
20080;SDS011;10200;49.232;9.222;2022-11-21T17:51:13;7.07;;;2.90;;
20080;SDS011;10200;49.232;9.222;2022-11-21T17:53:41;6.77;;;2.97;;
20080;SDS011;10200;49.232;9.222;2022-11-21T17:56:09;9.00;;;4.20;;
20080;SDS011;10200;49.232;9.222;2022-11-21T17:58:37;5.43;;;3.20;;
20080;SDS011;10200;49.232;9.222;2022-11-21T18:01:03;5.03;;;3.10;;
20080;SDS011;10200;49.232;9.222;2022-11-21T18:03:30;8.83;;;2.93;;
20080;SDS011;10200;49.232;9.222;2022-11-21T18:06:04;5.93;;;3.40;;
20080;SDS011;10200;49.232;9.222;2022-11-21T18:08:35;4.03;;;3.50;;
20080;SDS011;10200;49.232;9.222;2022-11-21T18:11:02;2.80;;;2.23;;
20080;SDS011;10200;49.232;9.222;2022-11-21T18:13:30;6.27;;;2.77;;